Time;durP1;ratioP1;P1;durP2;ratioP2;P2;SDS_P1;SDS_P2;PMS_P1;PMS_P2;Temp;Humidity;BMP_temperature;BMP_pressure;BME280_temperature;BME280_humidity;BME280_pressure;Samples;Min_cycle;Max_cycle;Signal;HPM_P1;HPM_P2
2022/08/22 00:01:15;;;;;;;;;;;17.10;99.90;;;;;;4997510;28;19971;-90
2022/08/22 00:03:47;;;;;;;;;;;17.10;99.90;;;;;;4997542;28;19922;-93
2022/08/22 00:06:19;;;;;;;;;;;17.10;99.90;;;;;;5012350;28;19928;-90
2022/08/22 00:08:44;;;;;;;;;;;17.10;99.90;;;;;;5017445;28;19921;-91
2022/08/22 00:11:28;;;;;;;;;;;17.10;99.90;;;;;;5015589;28;19920;-91
2022/08/22 00:14:09;;;;;;;;;;;17.10;99.90;;;;;;5015632;28;19928;-91
2022/08/22 00:16:34;;;;;;;;;;;17.10;99.90;;;;;;5016824;28;19960;-90
2022/08/22 00:19:03;;;;;;;;;;;17.20;99.90;;;;;;5016210;28;19972;-91
2022/08/22 00:21:31;;;;;;;;;;;17.30;99.90;;;;;;5034184;28;19924;-90
2022/08/22 00:24:02;;;;;;;;;;;17.00;99.90;;;;;;5033938;28;19932;-91
2022/08/22 00:26:32;;;;;;;;;;;17.10;99.90;;;;;;5015338;28;20369;-90
2022/08/22 00:29:00;;;;;;;;;;;17.10;99.90;;;;;;5016459;28;19921;-91
2022/08/22 00:31:30;;;;;;;;;;;17.10;99.90;;;;;;5016474;28;19921;-91
2022/08/22 00:34:14;;;;;;;;;;;17.10;99.90;;;;;;5034918;28;19921;-90
2022/08/22 00:36:44;;;;;;;;;;;17.10;99.90;;;;;;5020458;28;19928;-91
2022/08/22 00:39:13;;;;;;;;;;;17.10;99.90;;;;;;5037264;28;19917;-90
2022/08/22 00:41:58;;;;;;;;;;;17.20;99.90;;;;;;5037508;28;19972;-91
2022/08/22 00:44:35;;;;;;;;;;;17.10;99.90;;;;;;5038460;28;19916;-92
2022/08/22 00:47:04;;;;;;;;;;;17.10;99.90;;;;;;5021315;28;19921;-90
2022/08/22 00:49:43;;;;;;;;;;;17.10;99.90;;;;;;5038768;28;19917;-90
2022/08/22 00:52:12;;;;;;;;;;;17.10;99.90;;;;;;5020743;28;20376;-89
2022/08/22 00:54:44;;;;;;;;;;;17.10;99.90;;;;;;5019451;28;19921;-90
2022/08/22 00:57:18;;;;;;;;;;;17.10;99.90;;;;;;5038085;28;19921;-90
2022/08/22 00:59:53;;;;;;;;;;;17.00;99.90;;;;;;5037770;28;19917;-91
2022/08/22 01:02:37;;;;;;;;;;;17.10;99.90;;;;;;5043681;28;19921;-88
2022/08/22 01:05:20;;;;;;;;;;;17.00;99.90;;;;;;5044309;28;19927;-90
2022/08/22 01:08:04;;;;;;;;;;;17.00;99.90;;;;;;5020576;28;19947;-91
2022/08/22 01:10:48;;;;;;;;;;;17.10;99.90;;;;;;5019174;28;19925;-91
2022/08/22 01:13:16;;;;;;;;;;;17.00;99.90;;;;;;5037806;28;20328;-89
2022/08/22 01:15:42;;;;;;;;;;;17.00;99.90;;;;;;5036991;28;19921;-90
2022/08/22 01:18:26;;;;;;;;;;;17.10;99.90;;;;;;5020131;28;19923;-91
2022/08/22 01:21:30;;;;;;;;;;;17.00;99.90;;;;;;5037526;28;19921;-90
2022/08/22 01:24:01;;;;;;;;;;;17.00;99.90;;;;;;4979685;28;19930;-91
2022/08/22 01:26:30;;;;;;;;;;;17.00;99.90;;;;;;4974351;28;20385;-91
2022/08/22 01:29:10;;;;;;;;;;;17.10;99.90;;;;;;5012317;28;19921;-89
2022/08/22 01:31:51;;;;;;;;;;;17.00;99.90;;;;;;5040820;28;20380;-91
2022/08/22 01:34:29;;;;;;;;;;;17.00;99.90;;;;;;5000054;28;19925;-91
2022/08/22 01:37:13;;;;;;;;;;;17.00;99.90;;;;;;4999125;28;19927;-90
2022/08/22 01:39:58;;;;;;;;;;;17.00;99.90;;;;;;5016658;28;20427;-90
2022/08/22 01:42:26;;;;;;;;;;;17.00;99.90;;;;;;4999372;28;20369;-91
2022/08/22 01:45:01;;;;;;;;;;;17.00;99.90;;;;;;5016364;28;19918;-91
2022/08/22 01:47:45;;;;;;;;;;;17.00;99.90;;;;;;5016667;28;19925;-90
2022/08/22 01:50:23;;;;;;;;;;;17.00;99.90;;;;;;4998933;28;19924;-90
2022/08/22 01:52:57;;;;;;;;;;;17.00;99.90;;;;;;5017223;28;19944;-89
2022/08/22 01:55:45;;;;;;;;;;;17.00;99.90;;;;;;5016422;28;19928;-91
2022/08/22 01:58:16;;;;;;;;;;;17.00;99.90;;;;;;5011035;28;19925;-91
2022/08/22 02:01:01;;;;;;;;;;;16.90;99.90;;;;;;4999397;28;19928;-91
2022/08/22 02:03:31;;;;;;;;;;;16.90;99.90;;;;;;5016898;28;19925;-91
2022/08/22 02:06:09;;;;;;;;;;;17.00;99.90;;;;;;5029386;28;19979;-91
2022/08/22 02:08:41;;;;;;;;;;;16.90;99.90;;;;;;5018646;28;20008;-90
2022/08/22 02:11:09;;;;;;;;;;;16.90;99.90;;;;;;5035529;28;19925;-90
2022/08/22 02:13:46;;;;;;;;;;;16.90;99.90;;;;;;5036456;28;19928;-91
2022/08/22 02:16:30;;;;;;;;;;;16.90;99.90;;;;;;5018449;28;19921;-90
2022/08/22 02:19:08;;;;;;;;;;;16.90;99.90;;;;;;5036051;28;19948;-91
2022/08/22 02:21:43;;;;;;;;;;;16.90;99.90;;;;;;5018710;28;19921;-89
2022/08/22 02:24:21;;;;;;;;;;;16.90;99.90;;;;;;5018590;28;19924;-90
2022/08/22 02:27:05;;;;;;;;;;;16.90;99.90;;;;;;5035442;28;19925;-91
2022/08/22 02:29:36;;;;;;;;;;;16.80;99.90;;;;;;5018338;28;19921;-89
2022/08/22 02:32:21;;;;;;;;;;;16.80;99.90;;;;;;5035640;28;19927;-90
2022/08/22 02:34:58;;;;;;;;;;;16.70;99.90;;;;;;5036052;28;19925;-89
2022/08/22 02:37:38;;;;;;;;;;;16.70;99.90;;;;;;5029239;28;20385;-89
2022/08/22 02:40:27;;;;;;;;;;;16.70;99.90;;;;;;5015227;28;19925;-90
2022/08/22 02:43:01;;;;;;;;;;;16.70;99.90;;;;;;4993642;28;19922;-90
2022/08/22 02:45:26;;;;;;;;;;;16.60;99.90;;;;;;4998503;28;19925;-89
2022/08/22 02:47:55;;;;;;;;;;;16.60;99.90;;;;;;5023898;28;19913;-87
2022/08/22 02:50:41;;;;;;;;;;;16.70;99.90;;;;;;5023556;28;20005;-90
2022/08/22 02:53:10;;;;;;;;;;;16.70;99.90;;;;;;4978598;28;19925;-90
2022/08/22 02:55:45;;;;;;;;;;;16.60;99.90;;;;;;5015418;28;19922;-91
2022/08/22 02:58:17;;;;;;;;;;;16.60;99.90;;;;;;4998125;28;19921;-90
2022/08/22 03:00:45;;;;;;;;;;;16.50;99.90;;;;;;5015388;28;19921;-90
2022/08/22 03:03:18;;;;;;;;;;;16.60;99.90;;;;;;5028944;28;19967;-89
2022/08/22 03:05:43;;;;;;;;;;;16.50;99.90;;;;;;5020115;28;19925;-90
2022/08/22 03:08:23;;;;;;;;;;;16.50;99.90;;;;;;4999298;28;20436;-90
2022/08/22 03:10:58;;;;;;;;;;;16.50;99.90;;;;;;4997571;28;19921;-90
2022/08/22 03:13:25;;;;;;;;;;;16.50;99.90;;;;;;4997698;28;19968;-89
2022/08/22 03:16:08;;;;;;;;;;;16.50;99.90;;;;;;5014843;28;19956;-89
2022/08/22 03:18:51;;;;;;;;;;;16.40;99.90;;;;;;5015845;28;20012;-90
2022/08/22 03:21:20;;;;;;;;;;;16.40;99.90;;;;;;5014751;28;20328;-88
2022/08/22 03:23:51;;;;;;;;;;;16.40;99.90;;;;;;5014970;28;20012;-91
2022/08/22 03:26:26;;;;;;;;;;;16.30;99.90;;;;;;5014394;28;19972;-91
2022/08/22 03:28:55;;;;;;;;;;;16.30;99.90;;;;;;5014323;28;19921;-91
2022/08/22 03:31:22;;;;;;;;;;;16.40;99.90;;;;;;4997627;28;19972;-90
2022/08/22 03:34:26;;;;;;;;;;;16.30;99.90;;;;;;4997882;28;19928;-90
2022/08/22 03:37:00;;;;;;;;;;;16.30;99.90;;;;;;4957640;28;19922;-91
2022/08/22 03:39:35;;;;;;;;;;;16.30;99.90;;;;;;4957770;28;19926;-90
2022/08/22 03:42:01;;;;;;;;;;;16.30;99.90;;;;;;4996960;28;19964;-91
2022/08/22 03:44:26;;;;;;;;;;;16.30;99.90;;;;;;4997593;28;20000;-89
2022/08/22 03:47:21;;;;;;;;;;;16.30;99.90;;;;;;4997516;28;19917;-90
2022/08/22 03:50:06;;;;;;;;;;;16.20;99.90;;;;;;4988270;28;19928;-91
2022/08/22 03:53:05;;;;;;;;;;;16.20;99.90;;;;;;4997640;28;19928;-89
2022/08/22 03:55:45;;;;;;;;;;;16.20;99.90;;;;;;4997017;28;19932;-90
2022/08/22 03:58:29;;;;;;;;;;;16.10;99.90;;;;;;5014461;28;20031;-90
2022/08/22 04:01:12;;;;;;;;;;;16.10;99.90;;;;;;4997453;28;19928;-91
2022/08/22 04:03:40;;;;;;;;;;;16.00;99.90;;;;;;4996779;28;19922;-91
2022/08/22 04:06:09;;;;;;;;;;;16.00;99.90;;;;;;5011157;28;19949;-91
2022/08/22 04:08:53;;;;;;;;;;;16.00;99.90;;;;;;5033572;28;19921;-91
2022/08/22 04:11:36;;;;;;;;;;;15.90;99.90;;;;;;5033120;28;19928;-90
2022/08/22 04:14:07;;;;;;;;;;;15.90;99.90;;;;;;5034699;28;20282;-91
2022/08/22 04:16:36;;;;;;;;;;;15.80;99.90;;;;;;5018265;28;19921;-90
2022/08/22 04:19:20;;;;;;;;;;;15.80;99.90;;;;;;5035407;28;19917;-91
2022/08/22 04:22:01;;;;;;;;;;;15.80;99.90;;;;;;5017045;28;19925;-90
2022/08/22 04:24:32;;;;;;;;;;;15.70;99.90;;;;;;5016162;28;19936;-89
2022/08/22 04:27:01;;;;;;;;;;;15.70;99.90;;;;;;5016752;28;19917;-90
2022/08/22 04:29:34;;;;;;;;;;;15.70;99.90;;;;;;5034425;28;19925;-90
2022/08/22 04:32:04;;;;;;;;;;;15.70;99.90;;;;;;5034442;28;19928;-90
2022/08/22 04:34:33;;;;;;;;;;;15.70;99.90;;;;;;5048772;28;19921;-90
2022/08/22 04:37:04;;;;;;;;;;;15.70;99.90;;;;;;5032138;28;19928;-91
2022/08/22 04:39:36;;;;;;;;;;;15.70;99.90;;;;;;5056260;28;19921;-91
2022/08/22 04:42:13;;;;;;;;;;;15.60;99.90;;;;;;5022879;28;19921;-90
2022/08/22 04:44:55;;;;;;;;;;;15.60;99.90;;;;;;5033724;28;20047;-89
2022/08/22 04:47:28;;;;;;;;;;;15.60;99.90;;;;;;5016524;28;19925;-90
2022/08/22 04:49:58;;;;;;;;;;;15.70;99.90;;;;;;5016073;28;19920;-90
2022/08/22 04:52:31;;;;;;;;;;;15.70;99.90;;;;;;5016207;28;20388;-89
2022/08/22 04:55:16;;;;;;;;;;;15.60;99.90;;;;;;5033209;28;19928;-90
2022/08/22 04:57:48;;;;;;;;;;;15.60;99.90;;;;;;5016782;28;19925;-90
2022/08/22 05:00:14;;;;;;;;;;;15.60;99.90;;;;;;5033262;28;19917;-91
2022/08/22 05:02:44;;;;;;;;;;;15.60;99.90;;;;;;5033883;28;19964;-90
2022/08/22 05:05:12;;;;;;;;;;;15.60;99.90;;;;;;5033766;28;19924;-90
2022/08/22 05:07:40;;;;;;;;;;;15.70;99.90;;;;;;5015836;28;19975;-91
2022/08/22 05:10:08;;;;;;;;;;;15.60;99.90;;;;;;5015306;28;19932;-90
2022/08/22 05:12:36;;;;;;;;;;;15.60;99.90;;;;;;5016260;28;19925;-90
2022/08/22 05:15:17;;;;;;;;;;;16.10;99.90;;;;;;5033128;28;19940;-91
2022/08/22 05:17:47;;;;;;;;;;;15.60;99.90;;;;;;5016810;28;19921;-91
2022/08/22 05:20:16;;;;;;;;;;;15.70;99.90;;;;;;5017570;28;20300;-90
2022/08/22 05:22:44;;;;;;;;;;;15.70;99.90;;;;;;5019853;28;20025;-90
2022/08/22 05:25:16;;;;;;;;;;;15.70;99.90;;;;;;5036484;28;20442;-90
2022/08/22 05:27:44;;;;;;;;;;;15.70;99.90;;;;;;5019004;28;19928;-91
2022/08/22 05:30:19;;;;;;;;;;;15.70;99.90;;;;;;5019343;28;19928;-91
2022/08/22 05:33:00;;;;;;;;;;;15.70;99.90;;;;;;5019994;28;19921;-90
2022/08/22 05:35:33;;;;;;;;;;;15.80;99.90;;;;;;5018657;28;19921;-90
2022/08/22 05:37:59;;;;;;;;;;;15.80;99.90;;;;;;5037306;28;19921;-91
2022/08/22 05:40:26;;;;;;;;;;;15.80;99.90;;;;;;5037315;28;20020;-90
2022/08/22 05:42:53;;;;;;;;;;;15.80;99.90;;;;;;5024369;28;19920;-91
2022/08/22 05:45:19;;;;;;;;;;;15.80;99.90;;;;;;5019411;28;20020;-90
2022/08/22 05:47:50;;;;;;;;;;;15.80;99.90;;;;;;5019696;28;19983;-90
2022/08/22 05:50:17;;;;;;;;;;;15.80;99.90;;;;;;5036307;28;20357;-90
2022/08/22 05:52:45;;;;;;;;;;;15.80;99.90;;;;;;5037358;28;19932;-91
2022/08/22 05:55:32;;;;;;;;;;;15.90;99.90;;;;;;5035981;28;19921;-91
2022/08/22 05:58:11;;;;;;;;;;;15.90;99.90;;;;;;5037361;28;19921;-91
2022/08/22 06:00:39;;;;;;;;;;;15.90;99.90;;;;;;5019551;28;19925;-91
2022/08/22 06:03:25;;;;;;;;;;;15.90;99.90;;;;;;5019271;28;19921;-91
2022/08/22 06:05:52;;;;;;;;;;;16.00;99.90;;;;;;5019549;28;19921;-92
2022/08/22 06:08:40;;;;;;;;;;;16.00;99.90;;;;;;5019045;28;19921;-92
2022/08/22 06:11:22;;;;;;;;;;;16.00;99.90;;;;;;5042250;28;19980;-90
2022/08/22 06:13:52;;;;;;;;;;;16.10;99.90;;;;;;5059208;28;19905;-90
2022/08/22 06:16:22;;;;;;;;;;;16.10;99.90;;;;;;5043383;28;19921;-92
2022/08/22 06:18:49;;;;;;;;;;;16.20;99.90;;;;;;5021866;28;19921;-89
2022/08/22 06:21:20;;;;;;;;;;;16.20;99.90;;;;;;5049997;28;19928;-90
2022/08/22 06:23:46;;;;;;;;;;;16.30;99.90;;;;;;5023661;28;19967;-88
2022/08/22 06:26:11;;;;;;;;;;;16.30;99.90;;;;;;5027584;28;19925;-90
2022/08/22 06:28:40;;;;;;;;;;;16.40;99.90;;;;;;5017932;28;19921;-90
2022/08/22 06:31:09;;;;;;;;;;;16.50;99.90;;;;;;5017148;28;20396;-90
2022/08/22 06:33:37;;;;;;;;;;;16.60;99.90;;;;;;5019196;28;20003;-91
2022/08/22 06:38:57;;;;;;;;;;;16.60;99.90;;;;;;5017850;28;19917;-90
2022/08/22 06:41:25;;;;;;;;;;;16.70;99.90;;;;;;5018144;28;19921;-90
2022/08/22 06:43:51;;;;;;;;;;;16.70;99.90;;;;;;5035884;28;19916;-91
2022/08/22 06:46:18;;;;;;;;;;;16.80;99.90;;;;;;5017799;28;19944;-91
2022/08/22 06:48:47;;;;;;;;;;;16.90;99.90;;;;;;5018462;28;19917;-90
2022/08/22 06:51:14;;;;;;;;;;;16.90;99.90;;;;;;5035911;28;20064;-90
2022/08/22 06:53:44;;;;;;;;;;;17.00;99.90;;;;;;5017651;28;19927;-90
2022/08/22 06:56:10;;;;;;;;;;;17.00;99.90;;;;;;5035512;28;19921;-92
2022/08/22 06:58:38;;;;;;;;;;;17.20;99.90;;;;;;5035827;28;20008;-90
2022/08/22 07:01:07;;;;;;;;;;;17.20;99.90;;;;;;5017731;28;19967;-92
2022/08/22 07:03:44;;;;;;;;;;;17.30;99.90;;;;;;5035975;28;20257;-91
2022/08/22 07:06:15;;;;;;;;;;;17.30;99.90;;;;;;5017713;28;19928;-92
2022/08/22 07:08:41;;;;;;;;;;;17.40;99.90;;;;;;5031134;28;19921;-91
2022/08/22 07:11:14;;;;;;;;;;;17.50;99.90;;;;;;5017932;28;19924;-91
2022/08/22 07:13:42;;;;;;;;;;;17.50;99.90;;;;;;5017453;28;19921;-93
2022/08/22 07:16:08;;;;;;;;;;;17.60;99.90;;;;;;5035550;28;20380;-92
2022/08/22 07:18:44;;;;;;;;;;;17.60;99.90;;;;;;5018352;28;19917;-92
2022/08/22 07:21:10;;;;;;;;;;;17.70;99.90;;;;;;5034865;28;20031;-92
2022/08/22 07:23:44;;;;;;;;;;;17.80;99.90;;;;;;5035499;28;19972;-94
2022/08/22 07:26:13;;;;;;;;;;;17.80;99.90;;;;;;5034943;28;20013;-92
2022/08/22 07:28:48;;;;;;;;;;;17.80;99.90;;;;;;5017493;28;19921;-93
2022/08/22 07:31:30;;;;;;;;;;;17.90;99.90;;;;;;5018078;28;20339;-93
2022/08/22 07:34:03;;;;;;;;;;;17.90;99.90;;;;;;5035443;28;19927;-92
2022/08/22 07:36:32;;;;;;;;;;;17.90;99.90;;;;;;5035011;28;19944;-92
2022/08/22 07:39:10;;;;;;;;;;;18.10;99.90;;;;;;5034832;28;19928;-92
2022/08/22 07:41:55;;;;;;;;;;;18.10;99.90;;;;;;5016911;28;19925;-93
2022/08/22 07:44:22;;;;;;;;;;;18.20;99.90;;;;;;5035268;28;19925;-93
2022/08/22 07:46:51;;;;;;;;;;;18.20;99.90;;;;;;5037535;28;19916;-92
2022/08/22 07:49:20;;;;;;;;;;;18.30;99.90;;;;;;5056293;28;19913;-92
2022/08/22 07:51:49;;;;;;;;;;;18.30;99.90;;;;;;5046437;28;19925;-91
2022/08/22 07:54:27;;;;;;;;;;;18.40;99.90;;;;;;5016969;28;20335;-92
2022/08/22 07:57:08;;;;;;;;;;;18.50;99.90;;;;;;5016259;28;19921;-93
2022/08/22 07:59:35;;;;;;;;;;;18.50;99.90;;;;;;5017646;28;19921;-93
2022/08/22 08:02:10;;;;;;;;;;;18.50;99.90;;;;;;5034561;28;19921;-89
2022/08/22 08:04:37;;;;;;;;;;;18.60;99.90;;;;;;5016597;28;20297;-86
2022/08/22 08:07:04;;;;;;;;;;;18.70;99.90;;;;;;5020809;28;19932;-87
2022/08/22 08:09:32;;;;;;;;;;;18.70;99.90;;;;;;5012799;28;20288;-87
2022/08/22 08:11:58;;;;;;;;;;;18.80;99.90;;;;;;5013460;28;19921;-87
2022/08/22 08:14:25;;;;;;;;;;;18.80;99.90;;;;;;5013612;28;19985;-87
2022/08/22 08:16:55;;;;;;;;;;;18.90;99.90;;;;;;4995773;28;19925;-87
2022/08/22 08:19:21;;;;;;;;;;;19.00;99.90;;;;;;4996454;28;20273;-87
2022/08/22 08:21:49;;;;;;;;;;;19.00;99.90;;;;;;5013553;28;19925;-87
2022/08/22 08:24:24;;;;;;;;;;;19.10;99.90;;;;;;5013145;28;19928;-87
2022/08/22 08:29:42;;;;;;;;;;;19.20;99.90;;;;;;4995740;28;20004;-87
2022/08/22 08:32:09;;;;;;;;;;;19.20;99.90;;;;;;4996383;28;19922;-88
2022/08/22 08:34:36;;;;;;;;;;;19.30;99.90;;;;;;5014472;28;20177;-87
2022/08/22 08:37:13;;;;;;;;;;;19.30;99.90;;;;;;5013676;28;20277;-87
2022/08/22 08:39:42;;;;;;;;;;;19.30;99.90;;;;;;5012573;28;19922;-87
2022/08/22 08:42:10;;;;;;;;;;;19.40;99.90;;;;;;5013273;28;19928;-87
2022/08/22 08:45:03;;;;;;;;;;;19.40;99.90;;;;;;4995222;28;19932;-87
2022/08/22 08:47:48;;;;;;;;;;;19.50;99.90;;;;;;4998132;28;19930;-86
2022/08/22 08:50:17;;;;;;;;;;;19.60;99.90;;;;;;4995461;28;19921;-87
2022/08/22 08:53:00;;;;;;;;;;;19.60;99.90;;;;;;5013046;28;19925;-87
2022/08/22 08:55:40;;;;;;;;;;;19.60;99.90;;;;;;5014585;28;19921;-87
2022/08/22 08:58:09;;;;;;;;;;;19.60;99.90;;;;;;5017715;28;19921;-88
2022/08/22 09:00:44;;;;;;;;;;;19.70;99.90;;;;;;5017017;28;19921;-88
2022/08/22 09:03:28;;;;;;;;;;;19.70;99.90;;;;;;5000230;28;19971;-87
2022/08/22 09:05:59;;;;;;;;;;;19.70;99.90;;;;;;5016451;28;19921;-88
2022/08/22 09:08:25;;;;;;;;;;;19.80;99.90;;;;;;5016711;28;19921;-88
2022/08/22 09:10:50;;;;;;;;;;;19.80;99.90;;;;;;4999268;28;19921;-88
2022/08/22 09:13:22;;;;;;;;;;;19.80;99.90;;;;;;5016209;28;19969;-88
2022/08/22 09:15:53;;;;;;;;;;;19.90;99.90;;;;;;5017401;28;19929;-88
2022/08/22 09:18:30;;;;;;;;;;;19.90;99.90;;;;;;4999409;28;19925;-87
2022/08/22 09:20:55;;;;;;;;;;;19.90;99.90;;;;;;5016981;28;19960;-87
2022/08/22 09:23:33;;;;;;;;;;;20.00;99.90;;;;;;5039756;28;19918;-87
2022/08/22 09:26:02;;;;;;;;;;;20.00;99.90;;;;;;5000286;28;19975;-88
2022/08/22 09:28:31;;;;;;;;;;;20.10;99.90;;;;;;5017429;28;20623;-86
2022/08/22 09:30:57;;;;;;;;;;;20.20;99.90;;;;;;5018911;28;20261;-87
2022/08/22 09:33:31;;;;;;;;;;;20.20;99.90;;;;;;5036232;28;19984;-87
2022/08/22 09:35:56;;;;;;;;;;;20.40;99.90;;;;;;5018272;28;19947;-87
2022/08/22 09:38:37;;;;;;;;;;;20.50;99.90;;;;;;5018504;28;20011;-90
2022/08/22 09:41:02;;;;;;;;;;;20.60;99.90;;;;;;5017468;28;19920;-87
2022/08/22 09:43:49;;;;;;;;;;;20.60;99.90;;;;;;5036439;28;19925;-87
2022/08/22 09:46:22;;;;;;;;;;;20.60;99.90;;;;;;5036222;28;20289;-88
2022/08/22 09:49:17;;;;;;;;;;;20.70;99.90;;;;;;5035699;28;19970;-87
2022/08/22 09:51:42;;;;;;;;;;;20.70;99.90;;;;;;5001966;28;19925;-87
2022/08/22 09:54:17;;;;;;;;;;;20.80;99.90;;;;;;5037216;28;19974;-87
2022/08/22 09:56:42;;;;;;;;;;;20.80;99.90;;;;;;5034677;28;19924;-87
2022/08/22 09:59:10;;;;;;;;;;;20.80;99.90;;;;;;5018573;28;20280;-87
2022/08/22 10:01:42;;;;;;;;;;;20.90;99.90;;;;;;5035913;28;19929;-86
2022/08/22 10:04:20;;;;;;;;;;;20.90;99.90;;;;;;5035598;28;19917;-87
2022/08/22 10:06:45;;;;;;;;;;;21.00;99.90;;;;;;5016294;28;19921;-87
2022/08/22 10:09:18;;;;;;;;;;;21.10;99.90;;;;;;5034319;28;19924;-87
2022/08/22 10:11:48;;;;;;;;;;;21.10;99.90;;;;;;5017195;28;19936;-86
2022/08/22 10:14:17;;;;;;;;;;;21.20;99.90;;;;;;5017703;28;20269;-88
2022/08/22 10:17:10;;;;;;;;;;;21.30;99.90;;;;;;5016782;28;19925;-86
2022/08/22 10:19:41;;;;;;;;;;;21.30;99.90;;;;;;5034806;28;19924;-87
2022/08/22 10:22:19;;;;;;;;;;;21.40;99.90;;;;;;5017707;28;19941;-86
2022/08/22 10:25:03;;;;;;;;;;;21.50;99.90;;;;;;5015855;28;19925;-86
2022/08/22 10:27:47;;;;;;;;;;;21.60;99.90;;;;;;5035130;28;19928;-86
2022/08/22 10:30:33;;;;;;;;;;;21.70;99.90;;;;;;5016615;28;19925;-87
2022/08/22 10:33:17;;;;;;;;;;;21.80;99.90;;;;;;5013559;28;19974;-86
2022/08/22 10:35:48;;;;;;;;;;;21.80;99.90;;;;;;5016602;28;20004;-85
2022/08/22 10:38:19;;;;;;;;;;;21.90;99.90;;;;;;5002641;28;19975;-87
2022/08/22 10:40:50;;;;;;;;;;;22.00;99.90;;;;;;4997604;28;19921;-87
2022/08/22 10:43:19;;;;;;;;;;;22.00;99.90;;;;;;5015043;28;19979;-89
2022/08/22 10:45:46;;;;;;;;;;;22.10;99.90;;;;;;5014368;28;19921;-85
2022/08/22 10:48:15;;;;;;;;;;;22.10;99.90;;;;;;5015540;28;19932;-88
2022/08/22 10:50:48;;;;;;;;;;;22.20;99.90;;;;;;5015057;28;20004;-87
2022/08/22 10:53:44;;;;;;;;;;;22.30;99.90;;;;;;5002705;28;20005;-86
2022/08/22 10:56:12;;;;;;;;;;;22.30;99.90;;;;;;5028024;28;19929;-86
2022/08/22 10:58:44;;;;;;;;;;;22.40;99.90;;;;;;5020534;28;19924;-87
2022/08/22 11:01:13;;;;;;;;;;;22.40;99.90;;;;;;5015314;28;19976;-89
2022/08/22 11:03:41;;;;;;;;;;;22.50;99.90;;;;;;5015364;28;19968;-86
2022/08/22 11:06:22;;;;;;;;;;;22.60;99.90;;;;;;5014212;28;19937;-89
2022/08/22 11:08:54;;;;;;;;;;;22.70;99.90;;;;;;4997034;28;19928;-87
2022/08/22 11:11:35;;;;;;;;;;;22.80;99.90;;;;;;4996685;28;19992;-87
2022/08/22 11:14:12;;;;;;;;;;;23.00;99.90;;;;;;5014025;28;19921;-86
2022/08/22 11:16:38;;;;;;;;;;;23.10;99.90;;;;;;4996945;28;19921;-87
2022/08/22 11:19:30;;;;;;;;;;;23.20;99.90;;;;;;5014426;28;19944;-87
2022/08/22 11:22:08;;;;;;;;;;;23.20;99.90;;;;;;5001899;28;19925;-87
2022/08/22 11:24:53;;;;;;;;;;;23.20;99.90;;;;;;5014437;28;19918;-87
2022/08/22 11:27:24;;;;;;;;;;;23.30;99.90;;;;;;5008639;28;19921;-86
2022/08/22 11:30:00;;;;;;;;;;;23.40;99.90;;;;;;5016671;28;20004;-89
2022/08/22 11:32:29;;;;;;;;;;;23.50;99.90;;;;;;5034536;28;19925;-87
2022/08/22 11:34:57;;;;;;;;;;;23.50;99.90;;;;;;5033432;28;20027;-87
2022/08/22 11:37:23;;;;;;;;;;;23.60;99.90;;;;;;5040989;28;19967;-87
2022/08/22 11:40:00;;;;;;;;;;;23.60;99.90;;;;;;5019688;28;19917;-87
2022/08/22 11:42:32;;;;;;;;;;;23.70;99.90;;;;;;5016108;28;19924;-87
2022/08/22 11:44:58;;;;;;;;;;;23.90;99.90;;;;;;5016245;28;19917;-88
2022/08/22 11:47:26;;;;;;;;;;;24.00;99.90;;;;;;5033187;28;19927;-87
2022/08/22 11:50:24;;;;;;;;;;;24.10;99.90;;;;;;5033588;28;19924;-87
2022/08/22 11:53:01;;;;;;;;;;;24.20;99.90;;;;;;5011879;28;20011;-88
2022/08/22 11:55:35;;;;;;;;;;;24.30;99.90;;;;;;5014072;28;19921;-88
2022/08/22 11:58:23;;;;;;;;;;;24.40;99.90;;;;;;5034001;28;19925;-87
2022/08/22 12:00:54;;;;;;;;;;;24.50;99.90;;;;;;5034010;28;19932;-88
2022/08/22 12:03:25;;;;;;;;;;;24.50;99.90;;;;;;5033364;28;19921;-89
2022/08/22 12:05:59;;;;;;;;;;;24.40;99.90;;;;;;5016242;28;19917;-87
2022/08/22 12:08:27;;;;;;;;;;;24.40;99.90;;;;;;5032356;28;19923;-87
2022/08/22 12:10:56;;;;;;;;;;;24.40;99.90;;;;;;5032994;28;19916;-87
2022/08/22 12:13:27;;;;;;;;;;;24.40;99.90;;;;;;5016538;28;20287;-90
2022/08/22 12:16:01;;;;;;;;;;;24.50;99.90;;;;;;5033065;28;19964;-87
2022/08/22 12:18:29;;;;;;;;;;;24.50;99.90;;;;;;5033589;28;19921;-88
2022/08/22 12:21:13;;;;;;;;;;;24.40;99.90;;;;;;5015987;28;19928;-89
2022/08/22 12:23:38;;;;;;;;;;;24.40;99.90;;;;;;5015476;28;20352;-88
2022/08/22 12:26:14;;;;;;;;;;;24.40;99.90;;;;;;5036232;28;19921;-89
2022/08/22 12:28:57;;;;;;;;;;;24.50;99.90;;;;;;5055910;28;19983;-86
2022/08/22 12:31:26;;;;;;;;;;;24.70;99.90;;;;;;5043249;28;19967;-87
2022/08/22 12:34:10;;;;;;;;;;;24.90;99.90;;;;;;5015589;28;19921;-88
2022/08/22 12:36:57;;;;;;;;;;;25.10;99.90;;;;;;5015013;28;19933;-89
2022/08/22 12:39:29;;;;;;;;;;;25.30;99.90;;;;;;5015381;28;20364;-87
2022/08/22 12:42:06;;;;;;;;;;;25.50;99.90;;;;;;5032861;28;20016;-88
2022/08/22 12:44:51;;;;;;;;;;;25.60;99.90;;;;;;5016592;28;20280;-90
2022/08/22 12:47:23;;;;;;;;;;;25.70;99.90;;;;;;5033650;28;19921;-88
2022/08/22 12:49:56;;;;;;;;;;;25.80;99.90;;;;;;5033569;28;19983;-87
2022/08/22 12:52:27;;;;;;;;;;;25.70;99.90;;;;;;5015507;28;19921;-87
2022/08/22 12:55:05;;;;;;;;;;;25.70;99.90;;;;;;5014255;28;19956;-87
2022/08/22 12:57:46;;;;;;;;;;;25.70;99.90;;;;;;5015439;28;20015;-87
2022/08/22 13:00:18;;;;;;;;;;;25.70;99.90;;;;;;5015463;28;19967;-92
2022/08/22 13:02:43;;;;;;;;;;;25.70;99.90;;;;;;5033566;28;19936;-88
2022/08/22 13:05:16;;;;;;;;;;;25.80;99.90;;;;;;5032293;28;19916;-87
2022/08/22 13:07:42;;;;;;;;;;;26.00;99.90;;;;;;5015379;28;19921;-86
2022/08/22 13:10:14;;;;;;;;;;;26.10;99.90;;;;;;5032184;28;19932;-88
2022/08/22 13:12:59;;;;;;;;;;;26.20;99.90;;;;;;5014966;28;19917;-87
2022/08/22 13:15:25;;;;;;;;;;;26.30;99.90;;;;;;5015481;28;20341;-87
2022/08/22 13:17:51;;;;;;;;;;;26.50;99.90;;;;;;5034004;28;19944;-87
2022/08/22 13:20:35;;;;;;;;;;;26.70;99.90;;;;;;5052232;28;20350;-87
2022/08/22 13:23:07;;;;;;;;;;;26.80;99.90;;;;;;5028727;28;19921;-89
2022/08/22 13:25:52;;;;;;;;;;;27.00;98.20;;;;;;5026905;28;19928;-90
2022/08/22 13:28:20;;;;;;;;;;;26.90;98.40;;;;;;5015089;28;19928;-89
2022/08/22 13:30:48;;;;;;;;;;;27.00;98.70;;;;;;4995795;28;19933;-90
2022/08/22 13:33:20;;;;;;;;;;;27.00;98.80;;;;;;5013095;28;20012;-90
2022/08/22 13:35:48;;;;;;;;;;;27.10;98.80;;;;;;5013103;28;19925;-89
2022/08/22 13:38:23;;;;;;;;;;;27.20;99.00;;;;;;4996002;28;19921;-91
2022/08/22 13:40:50;;;;;;;;;;;27.30;98.70;;;;;;5013035;28;20024;-87
2022/08/22 13:43:18;;;;;;;;;;;27.40;98.20;;;;;;4999858;28;19960;-89
2022/08/22 13:45:51;;;;;;;;;;;27.30;98.10;;;;;;5016823;28;19922;-91
2022/08/22 13:48:20;;;;;;;;;;;27.40;98.20;;;;;;5017091;28;19921;-89
2022/08/22 13:50:58;;;;;;;;;;;27.40;98.10;;;;;;4999866;28;20361;-89
2022/08/22 13:53:34;;;;;;;;;;;27.50;98.00;;;;;;4998691;28;20380;-89
2022/08/22 13:56:04;;;;;;;;;;;27.40;97.30;;;;;;5015180;28;19975;-88
2022/08/22 13:58:39;;;;;;;;;;;27.30;96.90;;;;;;5017776;28;20365;-89
2022/08/22 14:01:10;;;;;;;;;;;27.20;97.00;;;;;;5036554;28;19921;-88
2022/08/22 14:03:44;;;;;;;;;;;27.00;96.80;;;;;;5033791;28;19922;-88
2022/08/22 14:06:16;;;;;;;;;;;26.80;96.50;;;;;;5016449;28;20432;-89
2022/08/22 14:08:42;;;;;;;;;;;26.70;96.70;;;;;;5004211;28;19921;-89
2022/08/22 14:11:10;;;;;;;;;;;26.60;97.20;;;;;;5015599;28;19918;-88
2022/08/22 14:13:44;;;;;;;;;;;26.60;97.50;;;;;;5015976;28;19948;-90
2022/08/22 14:16:19;;;;;;;;;;;26.70;97.50;;;;;;4998006;28;19922;-89
2022/08/22 14:18:55;;;;;;;;;;;26.80;97.50;;;;;;5016002;28;19928;-89
2022/08/22 14:21:26;;;;;;;;;;;26.90;97.40;;;;;;5015545;28;20028;-87
2022/08/22 14:23:54;;;;;;;;;;;27.00;97.50;;;;;;4997466;28;19975;-86
2022/08/22 14:26:27;;;;;;;;;;;27.00;97.30;;;;;;4997572;28;19926;-87
2022/08/22 14:28:55;;;;;;;;;;;27.10;97.00;;;;;;4998162;28;19922;-88
2022/08/22 14:31:23;;;;;;;;;;;27.10;96.80;;;;;;5015186;28;19921;-87
2022/08/22 14:34:00;;;;;;;;;;;27.00;95.90;;;;;;5015851;28;19946;-88
2022/08/22 14:36:29;;;;;;;;;;;26.90;95.50;;;;;;5014739;28;19925;-88
2022/08/22 14:38:59;;;;;;;;;;;26.90;96.50;;;;;;5034623;28;19978;-88
2022/08/22 14:41:31;;;;;;;;;;;26.90;96.80;;;;;;5035257;28;19943;-90
2022/08/22 14:44:08;;;;;;;;;;;27.10;96.80;;;;;;5017204;28;19917;-90
2022/08/22 14:46:49;;;;;;;;;;;27.10;96.70;;;;;;5017759;28;19927;-89
2022/08/22 14:49:15;;;;;;;;;;;27.20;96.30;;;;;;5039768;28;19917;-89
2022/08/22 14:51:46;;;;;;;;;;;27.20;96.00;;;;;;5020839;28;19921;-91
2022/08/22 14:54:13;;;;;;;;;;;27.20;96.10;;;;;;5017639;28;19928;-89
2022/08/22 14:56:39;;;;;;;;;;;27.30;95.30;;;;;;5035078;28;20403;-90
2022/08/22 14:59:08;;;;;;;;;;;27.50;95.30;;;;;;5034811;28;20015;-92